createdAt,value
2019-01-08T00:00:37.743Z,16.30
2019-01-08T00:01:37.742Z,16.10
2019-01-08T00:02:37.764Z,15.80
2019-01-08T00:03:37.740Z,16.00
2019-01-08T00:04:37.784Z,15.50
2019-01-08T00:05:37.767Z,16.60
2019-01-08T00:06:37.785Z,17.00
2019-01-08T00:07:37.776Z,18.10
2019-01-08T00:08:37.769Z,17.10
2019-01-08T00:09:37.843Z,16.60
2019-01-08T00:10:37.780Z,15.90
2019-01-08T00:11:37.778Z,15.20
2019-01-08T00:12:37.790Z,15.60
2019-01-08T00:13:37.808Z,16.80
2019-01-08T00:14:37.831Z,15.00
2019-01-08T00:15:37.851Z,14.90
2019-01-08T00:16:37.803Z,15.40
2019-01-08T00:17:37.801Z,16.30
2019-01-08T00:18:37.818Z,14.90
2019-01-08T00:19:37.868Z,14.40
2019-01-08T00:20:37.839Z,14.30
2019-01-08T00:21:37.816Z,15.10
2019-01-08T00:22:37.827Z,15.90
2019-01-08T00:23:37.842Z,15.40
2019-01-08T00:24:37.827Z,15.10
2019-01-08T00:25:37.892Z,14.60
2019-01-08T00:26:37.845Z,15.40
2019-01-08T00:27:37.863Z,15.10
2019-01-08T00:28:43.141Z,14.60
2019-01-08T00:29:37.926Z,14.60
2019-01-08T00:30:37.873Z,15.50
2019-01-08T00:31:37.922Z,15.30
2019-01-08T00:32:37.885Z,15.20
2019-01-08T00:33:37.897Z,15.10
2019-01-08T00:34:37.877Z,14.10
2019-01-08T00:35:37.934Z,14.10
2019-01-08T00:36:37.891Z,14.20
2019-01-08T00:37:37.891Z,13.80
2019-01-08T00:38:37.885Z,14.00
2019-01-08T00:39:37.914Z,14.30
2019-01-08T00:40:37.913Z,14.20
2019-01-08T00:41:37.948Z,14.30
2019-01-08T00:42:37.952Z,13.50
2019-01-08T00:43:38.001Z,13.40
2019-01-08T00:44:37.915Z,13.70
2019-01-08T00:45:37.975Z,12.60
2019-01-08T00:46:37.923Z,13.20
2019-01-08T00:47:37.988Z,12.80
2019-01-08T00:48:37.937Z,13.30
2019-01-08T00:49:37.951Z,13.10
2019-01-08T00:50:37.986Z,12.10
2019-01-08T00:51:37.946Z,11.80
2019-01-08T00:52:37.985Z,13.10
2019-01-08T00:53:38.009Z,12.60
2019-01-08T00:54:37.982Z,13.80
2019-01-08T00:55:37.980Z,13.20
2019-01-08T00:56:37.991Z,12.80
2019-01-08T00:57:37.982Z,12.00
2019-01-08T00:58:38.013Z,12.40
2019-01-08T00:59:37.998Z,13.10
2019-01-08T01:00:38.000Z,11.50
2019-01-08T01:01:37.996Z,12.90
2019-01-08T01:02:38.007Z,13.30
2019-01-08T01:03:38.051Z,12.50
2019-01-08T01:04:38.016Z,12.10
2019-01-08T01:05:38.011Z,12.90
2019-01-08T01:06:38.024Z,12.00
2019-01-08T01:07:38.030Z,12.70
2019-01-08T01:08:38.024Z,13.10
2019-01-08T01:09:38.066Z,13.80
2019-01-08T01:10:38.034Z,12.40
2019-01-08T01:11:38.042Z,12.70
2019-01-08T01:12:38.040Z,12.20
2019-01-08T01:13:38.071Z,14.30
2019-01-08T01:14:38.087Z,12.30
2019-01-08T01:15:38.056Z,12.70
2019-01-08T01:16:38.069Z,12.10
2019-01-08T01:17:38.085Z,13.00
2019-01-08T01:18:38.078Z,12.30
2019-01-08T01:19:38.121Z,12.10
2019-01-08T01:20:38.097Z,11.70
2019-01-08T01:21:38.090Z,11.10
2019-01-08T01:22:38.078Z,11.90
2019-01-08T01:23:38.093Z,11.50
2019-01-08T01:24:38.115Z,12.40
2019-01-08T01:25:38.118Z,11.20
2019-01-08T01:26:38.092Z,11.10
2019-01-08T01:27:38.113Z,10.90
2019-01-08T01:28:38.102Z,11.50
2019-01-08T01:29:38.114Z,11.70
2019-01-08T01:30:38.167Z,10.30
2019-01-08T01:31:38.157Z,10.80
2019-01-08T01:32:38.138Z,10.90
2019-01-08T01:33:38.172Z,14.20
2019-01-08T01:34:38.178Z,12.90
2019-01-08T01:35:38.314Z,13.20
2019-01-08T01:36:38.162Z,11.30
2019-01-08T01:37:38.195Z,10.20
2019-01-08T01:38:38.180Z,10.50
2019-01-08T01:39:38.155Z,9.80
2019-01-08T01:40:38.154Z,11.30
2019-01-08T01:41:38.226Z,11.00
2019-01-08T01:42:38.186Z,10.40
2019-01-08T01:43:38.175Z,10.60
2019-01-08T01:44:38.179Z,10.20
2019-01-08T01:45:38.215Z,10.80
2019-01-08T01:46:38.229Z,10.90
2019-01-08T01:47:38.204Z,11.90
2019-01-08T01:48:38.193Z,10.30
2019-01-08T01:49:38.202Z,11.20
2019-01-08T01:50:38.199Z,9.20
2019-01-08T01:51:38.275Z,10.10
2019-01-08T01:52:38.242Z,9.30
2019-01-08T01:53:38.250Z,9.90
2019-01-08T01:54:38.215Z,10.00
2019-01-08T01:55:38.245Z,10.60
2019-01-08T01:56:38.227Z,10.00
2019-01-08T01:57:38.262Z,9.10
2019-01-08T01:58:38.235Z,9.50
2019-01-08T01:59:38.249Z,9.60
2019-01-08T02:00:38.252Z,9.10
2019-01-08T02:01:38.269Z,8.80
2019-01-08T02:02:38.296Z,8.90
2019-01-08T02:03:38.265Z,8.30
2019-01-08T02:04:38.268Z,9.70
2019-01-08T02:05:38.276Z,9.20
2019-01-08T02:06:38.270Z,9.90
2019-01-08T02:07:38.336Z,10.80
2019-01-08T02:08:38.330Z,9.20
2019-01-08T02:09:38.295Z,9.90
2019-01-08T02:10:38.305Z,8.80
2019-01-08T02:11:38.302Z,9.70
2019-01-08T02:12:38.301Z,10.30
2019-01-08T02:13:38.325Z,9.20
2019-01-08T02:14:38.343Z,9.60
2019-01-08T02:15:38.309Z,9.90
2019-01-08T02:16:38.372Z,8.40
2019-01-08T02:17:38.325Z,9.00
2019-01-08T02:18:38.337Z,9.10
2019-01-08T02:19:38.373Z,9.40
2019-01-08T02:20:38.385Z,8.60
2019-01-08T02:21:38.356Z,9.40
2019-01-08T02:22:38.354Z,8.90
2019-01-08T02:23:38.354Z,9.50
2019-01-08T02:24:38.419Z,9.00
2019-01-08T02:25:38.380Z,9.20
2019-01-08T02:26:38.400Z,9.60
2019-01-08T02:27:38.360Z,9.10
2019-01-08T02:28:38.379Z,9.10
2019-01-08T02:29:38.396Z,9.40
2019-01-08T02:30:38.402Z,10.80
2019-01-08T02:31:38.377Z,10.50
2019-01-08T02:32:38.431Z,9.50
2019-01-08T02:33:38.407Z,9.30
2019-01-08T02:34:38.442Z,9.40
2019-01-08T02:35:38.406Z,10.30
2019-01-08T02:36:38.406Z,10.70
2019-01-08T02:37:38.420Z,9.70
2019-01-08T02:38:38.484Z,9.90
2019-01-08T02:39:38.419Z,9.40
2019-01-08T02:40:38.424Z,10.10
2019-01-08T02:41:38.486Z,10.70
2019-01-08T02:42:38.499Z,10.10
2019-01-08T02:43:38.444Z,10.50
2019-01-08T02:44:38.585Z,10.80
2019-01-08T02:45:38.471Z,11.70
2019-01-08T02:46:38.553Z,11.00
2019-01-08T02:47:38.495Z,10.70
2019-01-08T02:48:38.469Z,10.20
2019-01-08T02:49:38.454Z,10.40
2019-01-08T02:50:38.475Z,9.40
2019-01-08T02:51:38.501Z,9.90
2019-01-08T02:52:38.521Z,9.30
2019-01-08T02:53:38.481Z,9.40
2019-01-08T02:54:38.614Z,10.40
2019-01-08T02:55:38.488Z,10.30
2019-01-08T02:56:38.496Z,9.60
2019-01-08T02:57:38.497Z,9.00
2019-01-08T02:58:38.574Z,9.10
2019-01-08T02:59:38.537Z,11.30
2019-01-08T03:00:38.514Z,10.70
2019-01-08T03:01:38.523Z,11.30
2019-01-08T03:02:38.521Z,10.30
2019-01-08T03:03:38.530Z,9.50
2019-01-08T03:04:38.579Z,9.10
2019-01-08T03:05:38.520Z,10.20
2019-01-08T03:06:38.584Z,9.50
2019-01-08T03:07:38.534Z,9.70
2019-01-08T03:08:38.587Z,9.30
2019-01-08T03:09:38.566Z,9.70
2019-01-08T03:10:38.560Z,9.80
2019-01-08T03:11:38.566Z,9.80
2019-01-08T03:12:38.563Z,8.80
2019-01-08T03:13:38.580Z,8.60
2019-01-08T03:14:38.633Z,9.10
2019-01-08T03:15:38.636Z,8.70
2019-01-08T03:16:38.576Z,9.70
2019-01-08T03:17:38.588Z,10.70
2019-01-08T03:18:38.590Z,9.80
2019-01-08T03:19:38.637Z,8.80
2019-01-08T03:20:38.656Z,8.50
2019-01-08T03:21:38.607Z,9.20
2019-01-08T03:22:38.603Z,8.40
2019-01-08T03:23:38.614Z,9.00
2019-01-08T03:24:38.774Z,9.30
2019-01-08T03:25:38.615Z,8.80
2019-01-08T03:26:38.619Z,8.10
2019-01-08T03:27:38.631Z,8.80
2019-01-08T03:28:38.644Z,9.20
2019-01-08T03:29:38.642Z,8.90
2019-01-08T03:30:38.671Z,8.30
2019-01-08T03:31:38.638Z,8.30
2019-01-08T03:32:38.654Z,8.60
2019-01-08T03:33:38.655Z,8.30
2019-01-08T03:34:38.678Z,7.30
2019-01-08T03:35:38.692Z,8.10
2019-01-08T03:36:38.676Z,7.80
2019-01-08T03:37:38.667Z,7.70
2019-01-08T03:38:38.716Z,7.90
2019-01-08T03:39:38.683Z,8.00
2019-01-08T03:40:38.725Z,7.50
2019-01-08T03:41:38.703Z,7.70
2019-01-08T03:42:38.683Z,7.30
2019-01-08T03:43:38.692Z,7.60
2019-01-08T03:44:38.693Z,8.10
2019-01-08T03:45:38.772Z,7.00
2019-01-08T03:46:38.741Z,7.50
2019-01-08T03:47:38.717Z,7.20
2019-01-08T03:48:38.729Z,6.70
2019-01-08T03:49:38.730Z,7.20
2019-01-08T03:50:38.729Z,7.10
2019-01-08T03:51:38.755Z,7.60
2019-01-08T03:52:38.748Z,7.30
2019-01-08T03:53:38.744Z,7.60
2019-01-08T03:54:38.743Z,7.60
2019-01-08T03:55:38.759Z,8.10
2019-01-08T03:56:38.770Z,8.20
2019-01-08T03:57:38.763Z,8.20
2019-01-08T03:58:38.771Z,8.30
2019-01-08T03:59:42.074Z,8.30
2019-01-08T04:00:38.788Z,7.40
2019-01-08T04:01:38.790Z,7.60
2019-01-08T04:02:38.782Z,7.80
2019-01-08T04:03:38.790Z,7.10
2019-01-08T04:04:38.853Z,7.00
2019-01-08T04:05:38.798Z,7.90
2019-01-08T04:06:38.810Z,8.60
2019-01-08T04:07:38.806Z,7.30
2019-01-08T04:08:38.822Z,7.50
2019-01-08T04:09:38.821Z,8.10
2019-01-08T04:10:38.822Z,7.70
2019-01-08T04:11:38.814Z,7.70
2019-01-08T04:12:38.832Z,7.20
2019-01-08T04:13:38.837Z,7.10
2019-01-08T04:14:38.848Z,7.00
2019-01-08T04:15:38.858Z,7.30
2019-01-08T04:16:38.836Z,7.40
2019-01-08T04:17:38.848Z,7.30
2019-01-08T04:18:38.855Z,7.10
2019-01-08T04:19:38.852Z,7.50
2019-01-08T04:20:38.921Z,6.90
2019-01-08T04:21:38.854Z,7.10
2019-01-08T04:22:38.865Z,7.10
2019-01-08T04:23:38.866Z,6.80
2019-01-08T04:24:38.914Z,7.70
2019-01-08T04:25:38.872Z,7.10
2019-01-08T04:26:38.900Z,6.80
2019-01-08T04:27:38.900Z,6.70
2019-01-08T04:28:38.890Z,7.40
2019-01-08T04:29:38.895Z,7.10
2019-01-08T04:30:38.890Z,7.60
2019-01-08T04:31:38.948Z,7.30
2019-01-08T04:32:38.914Z,6.80
2019-01-08T04:33:38.920Z,7.50
2019-01-08T04:34:38.950Z,7.40
2019-01-08T04:35:38.914Z,7.30
2019-01-08T04:36:38.918Z,6.70
2019-01-08T04:37:38.951Z,7.60
2019-01-08T04:38:38.960Z,6.80
2019-01-08T04:39:38.944Z,6.90
2019-01-08T04:40:38.936Z,6.70
2019-01-08T04:41:39.009Z,6.90
2019-01-08T04:42:38.948Z,7.20
2019-01-08T04:43:38.959Z,6.80
2019-01-08T04:44:38.960Z,7.30
2019-01-08T04:45:38.987Z,7.50
2019-01-08T04:46:38.958Z,7.10
2019-01-08T04:47:38.982Z,7.40
2019-01-08T04:48:39.005Z,6.90
2019-01-08T04:49:38.979Z,6.90
2019-01-08T04:50:38.984Z,7.10
2019-01-08T04:51:38.992Z,7.00
2019-01-08T04:52:39.051Z,7.40
2019-01-08T04:53:38.985Z,6.90
2019-01-08T04:54:38.998Z,7.10
2019-01-08T04:55:39.008Z,7.20
2019-01-08T04:56:39.048Z,7.00
2019-01-08T04:57:39.058Z,7.80
2019-01-08T04:58:39.016Z,7.10
2019-01-08T04:59:39.032Z,6.90
2019-01-08T05:00:39.023Z,6.30
2019-01-08T05:01:39.039Z,6.60
2019-01-08T05:02:39.019Z,6.10
2019-01-08T05:03:39.056Z,6.00
2019-01-08T05:04:39.045Z,6.10
2019-01-08T05:05:39.033Z,10.20
2019-01-08T05:06:39.077Z,6.70
2019-01-08T05:07:39.038Z,6.10
2019-01-08T05:08:39.096Z,6.00
2019-01-08T05:09:39.051Z,6.40
2019-01-08T05:10:39.065Z,6.40
2019-01-08T05:11:39.063Z,5.50
2019-01-08T05:12:39.114Z,5.10
2019-01-08T05:13:39.087Z,5.30
2019-01-08T05:14:39.077Z,5.40
2019-01-08T05:15:39.095Z,5.40
2019-01-08T05:16:39.102Z,5.20
2019-01-08T05:17:39.154Z,4.70
2019-01-08T05:18:39.097Z,5.00
2019-01-08T05:19:39.094Z,5.10
2019-01-08T05:20:39.110Z,5.20
2019-01-08T05:21:39.094Z,5.60
2019-01-08T05:22:39.113Z,4.90
2019-01-08T05:23:39.131Z,5.00
2019-01-08T05:24:39.171Z,4.90
2019-01-08T05:25:39.117Z,4.80
2019-01-08T05:26:39.110Z,4.60
2019-01-08T05:27:39.133Z,4.80
2019-01-08T05:28:39.152Z,5.60
2019-01-08T05:29:39.137Z,4.90
2019-01-08T05:30:39.130Z,4.70
2019-01-08T05:31:39.177Z,4.40
2019-01-08T05:32:39.143Z,4.70
2019-01-08T05:33:39.172Z,4.30
2019-01-08T05:34:39.154Z,5.00
2019-01-08T05:35:39.158Z,4.50
2019-01-08T05:36:39.160Z,4.40
2019-01-08T05:37:39.169Z,4.50
2019-01-08T05:38:39.218Z,4.30
2019-01-08T05:39:39.166Z,4.60
2019-01-08T05:40:39.183Z,4.50
2019-01-08T05:41:39.200Z,4.60
2019-01-08T05:42:39.198Z,4.80
2019-01-08T05:43:39.176Z,4.90
2019-01-08T05:44:39.246Z,4.50
2019-01-08T05:45:39.185Z,5.10
2019-01-08T05:46:39.196Z,4.70
2019-01-08T05:47:39.199Z,4.70
2019-01-08T05:48:39.226Z,4.30
2019-01-08T05:49:39.227Z,4.40
2019-01-08T05:50:39.213Z,4.70
2019-01-08T05:51:39.209Z,5.20
2019-01-08T05:52:39.232Z,4.70
2019-01-08T05:53:39.242Z,4.50
2019-01-08T05:54:39.270Z,4.60
2019-01-08T05:55:39.241Z,4.70
2019-01-08T05:56:39.302Z,4.40
2019-01-08T05:57:39.245Z,4.70
2019-01-08T05:58:39.247Z,4.90
2019-01-08T05:59:39.250Z,4.50
2019-01-08T06:00:39.342Z,5.30
2019-01-08T06:01:39.270Z,4.60
2019-01-08T06:02:39.275Z,4.50
2019-01-08T06:03:39.259Z,5.10
2019-01-08T06:04:39.323Z,4.50
2019-01-08T06:05:39.298Z,5.40
2019-01-08T06:06:39.302Z,4.90
2019-01-08T06:07:39.277Z,4.50
2019-01-08T06:08:39.279Z,4.50
2019-01-08T06:09:39.283Z,4.30
2019-01-08T06:10:39.926Z,4.60
2019-01-08T06:11:39.321Z,4.30
2019-01-08T06:12:39.375Z,4.40
2019-01-08T06:13:39.326Z,4.60
2019-01-08T06:14:39.302Z,4.70
2019-01-08T06:15:39.342Z,4.30
2019-01-08T06:16:39.317Z,4.30
2019-01-08T06:17:39.323Z,4.10
2019-01-08T06:18:39.334Z,4.10
2019-01-08T06:19:39.352Z,4.10
2019-01-08T06:20:39.406Z,4.10
2019-01-08T06:21:39.368Z,4.20
2019-01-08T06:22:39.347Z,4.00
2019-01-08T06:23:39.338Z,4.00
2019-01-08T06:24:39.363Z,3.60
2019-01-08T06:25:39.373Z,4.20
2019-01-08T06:26:39.383Z,4.30
2019-01-08T06:27:39.381Z,4.40
2019-01-08T06:28:39.412Z,4.20
2019-01-08T06:29:39.373Z,4.30
2019-01-08T06:30:39.409Z,5.30
2019-01-08T06:31:39.428Z,4.30
2019-01-08T06:32:39.427Z,4.00
2019-01-08T06:33:39.378Z,3.80
2019-01-08T06:34:39.403Z,4.40
2019-01-08T06:35:39.391Z,3.90
2019-01-08T06:36:39.402Z,3.70
2019-01-08T06:37:39.425Z,3.90
2019-01-08T06:38:39.402Z,3.80
2019-01-08T06:39:39.425Z,4.30
2019-01-08T06:40:39.418Z,4.10
2019-01-08T06:41:39.428Z,4.20
2019-01-08T06:42:39.444Z,4.20
2019-01-08T06:43:39.434Z,4.50
2019-01-08T06:44:39.420Z,4.20
2019-01-08T06:45:39.529Z,4.50
2019-01-08T06:46:43.153Z,4.50
2019-01-08T06:47:39.442Z,4.80
2019-01-08T06:48:39.477Z,4.40
2019-01-08T06:49:39.490Z,4.20
2019-01-08T06:50:39.453Z,4.00
2019-01-08T06:51:39.466Z,4.60
2019-01-08T06:52:39.484Z,4.20
2019-01-08T06:53:39.490Z,4.50
2019-01-08T06:54:39.536Z,4.10
2019-01-08T06:55:39.476Z,4.60
2019-01-08T06:56:39.544Z,4.40
2019-01-08T06:57:39.483Z,4.70
2019-01-08T06:58:39.510Z,5.00
2019-01-08T06:59:39.519Z,4.80
2019-01-08T07:00:39.505Z,3.80
2019-01-08T07:01:39.515Z,4.60
2019-01-08T07:02:39.578Z,4.40
2019-01-08T07:03:39.529Z,4.00
2019-01-08T07:04:39.543Z,4.50
2019-01-08T07:05:39.546Z,4.10
2019-01-08T07:06:39.530Z,4.20
2019-01-08T07:07:39.533Z,4.30
2019-01-08T07:08:39.586Z,4.10
2019-01-08T07:09:39.544Z,4.10
2019-01-08T07:10:39.541Z,4.60
2019-01-08T07:11:39.553Z,4.30
2019-01-08T07:12:39.541Z,4.20
2019-01-08T07:13:39.581Z,4.60
2019-01-08T07:14:39.598Z,4.10
2019-01-08T07:15:39.557Z,4.40
2019-01-08T07:16:39.576Z,4.20
2019-01-08T07:17:39.577Z,3.80
2019-01-08T07:18:39.578Z,4.40
2019-01-08T07:19:39.609Z,4.40
2019-01-08T07:20:39.611Z,4.10
2019-01-08T07:21:39.582Z,4.40
2019-01-08T07:22:39.636Z,4.00
2019-01-08T07:23:39.626Z,4.10
2019-01-08T07:24:39.603Z,4.00
2019-01-08T07:25:42.319Z,4.30
2019-01-08T07:26:39.603Z,4.30
2019-01-08T07:27:39.632Z,4.00
2019-01-08T07:28:39.624Z,4.10
2019-01-08T07:29:39.616Z,4.10
2019-01-08T07:30:41.731Z,4.10
2019-01-08T07:31:39.698Z,3.90
2019-01-08T07:32:39.636Z,4.20
2019-01-08T07:33:39.643Z,4.00
2019-01-08T07:34:39.648Z,3.90
2019-01-08T07:35:39.718Z,4.30
2019-01-08T07:36:39.683Z,4.00
2019-01-08T07:37:39.651Z,4.10
2019-01-08T07:38:39.691Z,3.60
2019-01-08T07:39:39.673Z,4.40
2019-01-08T07:40:41.373Z,4.40
2019-01-08T07:41:39.761Z,3.80
2019-01-08T07:42:39.689Z,5.30
2019-01-08T07:43:39.692Z,4.30
2019-01-08T07:44:39.719Z,3.90
2019-01-08T07:45:39.718Z,4.30
2019-01-08T07:46:40.310Z,4.10
2019-01-08T07:47:39.711Z,4.30
2019-01-08T07:48:39.714Z,4.30
2019-01-08T07:49:39.700Z,3.70
2019-01-08T07:50:39.710Z,4.00
2019-01-08T07:51:39.746Z,4.10
2019-01-08T07:52:39.746Z,4.10
2019-01-08T07:53:39.740Z,4.00
2019-01-08T07:54:39.729Z,4.40
2019-01-08T07:55:39.739Z,4.20
2019-01-08T07:56:39.738Z,3.70
2019-01-08T07:57:39.750Z,4.60
2019-01-08T07:58:39.777Z,4.20
2019-01-08T07:59:39.798Z,3.90
2019-01-08T08:00:39.749Z,4.20
2019-01-08T08:01:39.750Z,4.00
2019-01-08T08:02:39.765Z,4.30
2019-01-08T08:03:39.926Z,4.00
2019-01-08T08:04:47.330Z,3.80
2019-01-08T08:05:39.785Z,4.00
2019-01-08T08:06:39.784Z,4.00
2019-01-08T08:07:39.800Z,3.70
2019-01-08T08:08:39.842Z,4.00
2019-01-08T08:09:39.817Z,4.10
2019-01-08T08:10:39.809Z,4.40
2019-01-08T08:11:39.877Z,4.40
2019-01-08T08:12:39.808Z,3.80
2019-01-08T08:13:39.843Z,3.90
2019-01-08T08:14:39.821Z,4.30
2019-01-08T08:15:39.874Z,3.90
2019-01-08T08:16:39.828Z,4.10
2019-01-08T08:17:39.837Z,3.50
2019-01-08T08:18:39.851Z,3.90
2019-01-08T08:19:39.829Z,3.80
2019-01-08T08:20:39.858Z,4.30
2019-01-08T08:21:39.902Z,4.20
2019-01-08T08:22:39.854Z,4.40
2019-01-08T08:23:39.872Z,4.40
2019-01-08T08:24:39.861Z,4.20
2019-01-08T08:25:39.928Z,4.00
2019-01-08T08:26:39.884Z,4.10
2019-01-08T08:27:39.938Z,4.10
2019-01-08T08:28:39.868Z,4.50
2019-01-08T08:29:39.871Z,4.40
2019-01-08T08:30:39.877Z,4.60
2019-01-08T08:31:39.885Z,4.60
2019-01-08T08:32:39.907Z,4.20
2019-01-08T08:33:40.005Z,4.00
2019-01-08T08:34:39.908Z,4.00
2019-01-08T08:35:39.906Z,4.10
2019-01-08T08:36:39.935Z,4.00
2019-01-08T08:37:39.958Z,4.10
2019-01-08T08:38:39.976Z,3.60
2019-01-08T08:39:39.919Z,4.00
2019-01-08T08:40:39.927Z,3.80
2019-01-08T08:41:39.951Z,3.60
2019-01-08T08:42:39.940Z,3.70
2019-01-08T08:43:39.961Z,3.30
2019-01-08T08:44:39.963Z,3.40
2019-01-08T08:45:39.979Z,3.00
2019-01-08T08:46:39.956Z,3.10
2019-01-08T08:47:39.979Z,3.30
2019-01-08T08:48:40.029Z,3.50
2019-01-08T08:49:39.967Z,3.70
2019-01-08T08:50:39.982Z,3.80
2019-01-08T08:51:39.985Z,3.80
2019-01-08T08:52:40.003Z,3.60
2019-01-08T08:53:39.991Z,3.90
2019-01-08T08:54:40.011Z,3.70
2019-01-08T08:55:40.272Z,4.00
2019-01-08T08:56:39.997Z,4.10
2019-01-08T08:57:40.001Z,3.80
2019-01-08T08:58:40.009Z,4.30
2019-01-08T08:59:40.053Z,3.80
2019-01-08T09:00:40.021Z,4.00
2019-01-08T09:01:40.127Z,3.80
2019-01-08T09:02:40.046Z,4.00
2019-01-08T09:03:40.046Z,4.20
2019-01-08T09:04:40.042Z,3.90
2019-01-08T09:05:40.055Z,4.20
2019-01-08T09:06:40.142Z,4.00
2019-01-08T09:07:40.070Z,4.20
2019-01-08T09:08:40.094Z,4.20
2019-01-08T09:09:40.113Z,4.20
2019-01-08T09:10:40.060Z,4.00
2019-01-08T09:11:40.057Z,4.00
2019-01-08T09:12:40.074Z,3.90
2019-01-08T09:13:40.090Z,4.20
2019-01-08T09:14:40.204Z,3.60
2019-01-08T09:15:40.823Z,4.40
2019-01-08T09:16:40.091Z,4.30
2019-01-08T09:17:40.178Z,4.00
2019-01-08T09:18:40.098Z,3.90
2019-01-08T09:19:40.109Z,3.80
2019-01-08T09:20:40.116Z,4.50
2019-01-08T09:21:40.163Z,3.70
2019-01-08T09:22:40.112Z,4.00
2019-01-08T09:23:40.125Z,4.40
2019-01-08T09:24:40.117Z,4.20
2019-01-08T09:25:40.133Z,4.00
2019-01-08T09:26:40.176Z,3.90
2019-01-08T09:27:40.191Z,4.10
2019-01-08T09:28:40.152Z,4.50
2019-01-08T09:29:40.139Z,3.90
2019-01-08T09:30:40.144Z,3.40
2019-01-08T09:31:40.153Z,4.10
2019-01-08T09:32:40.160Z,4.00
2019-01-08T09:33:40.200Z,3.80
2019-01-08T09:34:40.195Z,3.60
2019-01-08T09:35:40.179Z,3.80
2019-01-08T09:36:40.171Z,3.70
2019-01-08T09:37:40.208Z,4.20
2019-01-08T09:38:40.215Z,4.00
2019-01-08T09:39:40.184Z,3.90
2019-01-08T09:40:40.215Z,4.20
2019-01-08T09:41:40.222Z,3.90
2019-01-08T09:42:40.249Z,4.10
2019-01-08T09:43:40.199Z,3.60
2019-01-08T09:44:40.209Z,3.90
2019-01-08T09:45:40.241Z,3.90
2019-01-08T09:46:40.266Z,3.60
2019-01-08T09:47:40.220Z,3.50
2019-01-08T09:48:40.243Z,3.70
2019-01-08T09:49:40.236Z,3.90
2019-01-08T09:50:40.252Z,4.70
2019-01-08T09:51:40.336Z,3.60
2019-01-08T09:52:40.259Z,3.60
2019-01-08T09:53:40.289Z,3.80
2019-01-08T09:54:40.247Z,3.90
2019-01-08T09:55:40.249Z,3.60
2019-01-08T09:56:40.254Z,3.80
2019-01-08T09:57:40.298Z,4.30
2019-01-08T09:58:40.290Z,4.80
2019-01-08T09:59:40.418Z,4.30
2019-01-08T10:00:40.306Z,4.00
2019-01-08T10:01:40.290Z,4.00
2019-01-08T10:02:40.292Z,3.70
2019-01-08T10:03:40.299Z,3.70
2019-01-08T10:04:40.310Z,3.30
2019-01-08T10:05:40.325Z,3.10
2019-01-08T10:06:40.334Z,3.60
2019-01-08T10:07:40.318Z,3.00
2019-01-08T10:08:40.329Z,3.40
2019-01-08T10:09:40.373Z,3.50
2019-01-08T10:10:40.327Z,3.40
2019-01-08T10:11:40.362Z,3.10
2019-01-08T10:12:40.385Z,3.20
2019-01-08T10:13:40.379Z,3.60
2019-01-08T10:14:40.354Z,3.20
2019-01-08T10:15:40.380Z,3.40
2019-01-08T10:16:40.355Z,3.30
2019-01-08T10:17:40.355Z,2.90
2019-01-08T10:18:40.362Z,3.00
2019-01-08T10:19:40.362Z,2.90
2019-01-08T10:20:40.416Z,3.50
2019-01-08T10:21:40.405Z,3.10
2019-01-08T10:22:40.390Z,3.00
2019-01-08T10:23:40.394Z,2.80
2019-01-08T10:24:40.488Z,2.80
2019-01-08T10:25:40.415Z,2.60
2019-01-08T10:26:40.568Z,3.30
2019-01-08T10:27:40.432Z,2.90
2019-01-08T10:28:40.405Z,3.00
2019-01-08T10:29:40.408Z,3.40
2019-01-08T10:30:41.263Z,3.30
2019-01-08T10:31:40.509Z,3.40
2019-01-08T10:32:40.425Z,3.20
2019-01-08T10:33:40.437Z,3.80
2019-01-08T10:34:40.443Z,3.20
2019-01-08T10:35:40.463Z,3.10
2019-01-08T10:36:40.450Z,3.40
2019-01-08T10:37:40.496Z,3.10
2019-01-08T10:38:40.449Z,3.30
2019-01-08T10:39:40.458Z,3.30
2019-01-08T10:40:40.465Z,3.40
2019-01-08T10:41:40.468Z,3.00
2019-01-08T10:42:40.475Z,2.90
2019-01-08T10:43:40.610Z,3.00
2019-01-08T10:44:40.470Z,2.80
2019-01-08T10:45:40.489Z,3.10
2019-01-08T10:46:40.508Z,2.60
2019-01-08T10:47:40.531Z,2.90
2019-01-08T10:48:40.496Z,2.70
2019-01-08T10:49:40.523Z,2.90
2019-01-08T10:50:40.521Z,3.00
2019-01-08T10:51:40.506Z,3.30
2019-01-08T10:52:40.504Z,3.80
2019-01-08T10:53:40.544Z,3.00
2019-01-08T10:54:40.514Z,4.80
2019-01-08T10:55:40.546Z,3.40
2019-01-08T10:56:41.261Z,3.20
2019-01-08T10:57:40.628Z,3.40
2019-01-08T10:58:40.540Z,3.30
2019-01-08T10:59:40.601Z,2.50
2019-01-08T11:00:40.552Z,2.80
2019-01-08T11:01:41.011Z,3.30
2019-01-08T11:02:40.633Z,2.90
2019-01-08T11:03:40.606Z,2.80
2019-01-08T11:04:40.620Z,3.00
2019-01-08T11:05:40.569Z,2.70
2019-01-08T11:06:40.581Z,2.90
2019-01-08T11:07:40.618Z,2.60
2019-01-08T11:08:40.576Z,2.60
2019-01-08T11:09:40.599Z,2.70
2019-01-08T11:10:40.600Z,2.60
2019-01-08T11:11:40.629Z,2.30
2019-01-08T11:12:40.621Z,2.60
2019-01-08T11:13:40.601Z,2.60
2019-01-08T11:14:40.636Z,2.50
2019-01-08T11:15:40.619Z,2.90
2019-01-08T11:16:40.626Z,3.10
2019-01-08T11:17:40.620Z,2.60
2019-01-08T11:18:40.693Z,2.90
2019-01-08T11:19:41.403Z,2.70
2019-01-08T11:20:40.645Z,2.60
2019-01-08T11:21:40.652Z,2.60
2019-01-08T11:22:40.663Z,2.50
2019-01-08T11:23:40.671Z,2.40
2019-01-08T11:24:40.719Z,2.40
2019-01-08T11:25:40.668Z,2.70
2019-01-08T11:26:40.676Z,2.70
2019-01-08T11:27:40.676Z,2.50
2019-01-08T11:28:40.676Z,2.60
2019-01-08T11:29:40.713Z,2.70
2019-01-08T11:30:40.776Z,2.80
2019-01-08T11:31:48.625Z,2.20
2019-01-08T11:32:40.717Z,2.40
2019-01-08T11:33:40.693Z,2.30
2019-01-08T11:34:40.710Z,2.40
2019-01-08T11:35:42.278Z,2.40
2019-01-08T11:36:40.768Z,2.10
2019-01-08T11:37:40.767Z,2.00
2019-01-08T11:38:40.750Z,2.50
2019-01-08T11:39:40.773Z,2.50
2019-01-08T11:40:40.726Z,2.20
2019-01-08T11:41:40.785Z,2.40
2019-01-08T11:42:40.748Z,2.10
2019-01-08T11:43:40.757Z,2.40
2019-01-08T11:44:40.791Z,2.30
2019-01-08T11:45:40.895Z,2.20
2019-01-08T11:46:40.763Z,2.20
2019-01-08T11:47:40.764Z,2.60
2019-01-08T11:48:40.799Z,2.30
2019-01-08T11:49:40.772Z,2.20
2019-01-08T11:50:40.828Z,2.30
2019-01-08T11:51:40.800Z,2.00
2019-01-08T11:52:40.786Z,2.30
2019-01-08T11:53:40.809Z,2.50
2019-01-08T11:54:41.380Z,2.60
2019-01-08T11:55:40.816Z,2.30
2019-01-08T11:56:40.842Z,2.10
2019-01-08T11:57:40.853Z,2.10
2019-01-08T11:58:40.824Z,2.30
2019-01-08T11:59:40.824Z,2.40
2019-01-08T12:00:40.999Z,2.30
2019-01-08T12:01:40.863Z,2.60
2019-01-08T12:02:47.728Z,2.40
2019-01-08T12:03:40.837Z,2.90
2019-01-08T12:04:40.906Z,2.20
2019-01-08T12:05:40.842Z,2.50
2019-01-08T12:06:40.963Z,2.20
2019-01-08T12:07:40.866Z,2.20
2019-01-08T12:08:40.918Z,2.40
2019-01-08T12:09:40.861Z,2.30
2019-01-08T12:10:40.904Z,2.30
2019-01-08T12:11:40.928Z,2.40
2019-01-08T12:12:40.900Z,2.00
2019-01-08T12:13:40.889Z,2.10
2019-01-08T12:14:40.892Z,2.00
2019-01-08T12:15:40.899Z,2.70
2019-01-08T12:16:40.903Z,2.30
2019-01-08T12:17:40.968Z,1.90
2019-01-08T12:18:40.908Z,2.50
2019-01-08T12:19:40.903Z,2.00
2019-01-08T12:20:40.932Z,1.80
2019-01-08T12:21:40.917Z,2.60
2019-01-08T12:22:41.246Z,2.20
2019-01-08T12:23:40.935Z,2.10
2019-01-08T12:24:40.945Z,2.60
2019-01-08T12:25:40.963Z,1.90
2019-01-08T12:26:40.999Z,2.20
2019-01-08T12:27:40.974Z,2.40
2019-01-08T12:28:40.941Z,2.10
2019-01-08T12:29:40.967Z,2.30
2019-01-08T12:30:40.971Z,2.00
2019-01-08T12:31:40.996Z,2.30
2019-01-08T12:32:40.975Z,2.30
2019-01-08T12:33:41.008Z,2.70
2019-01-08T12:34:40.971Z,2.40
2019-01-08T12:35:40.970Z,2.50
2019-01-08T12:36:41.007Z,2.20
2019-01-08T12:37:42.103Z,2.10
2019-01-08T12:38:41.199Z,2.10
2019-01-08T12:39:41.085Z,2.20
2019-01-08T12:40:41.010Z,2.40
2019-01-08T12:41:41.004Z,2.20
2019-01-08T12:42:41.015Z,2.20
2019-01-08T12:43:41.093Z,2.20
2019-01-08T12:44:41.073Z,2.40
2019-01-08T12:45:41.089Z,2.50
2019-01-08T12:46:41.037Z,6.60
2019-01-08T12:47:41.069Z,3.50
2019-01-08T12:48:41.049Z,2.60
2019-01-08T12:49:41.073Z,1.80
2019-01-08T12:50:41.083Z,2.20
2019-01-08T12:51:41.053Z,1.90
2019-01-08T12:52:41.085Z,2.10
2019-01-08T12:53:41.091Z,2.20
2019-01-08T12:54:41.096Z,2.30
2019-01-08T12:55:41.084Z,2.40
2019-01-08T12:56:41.078Z,2.50
2019-01-08T12:57:41.115Z,2.50
2019-01-08T12:58:41.187Z,2.30
2019-01-08T12:59:41.105Z,2.20
2019-01-08T13:00:41.123Z,2.50
2019-01-08T13:01:41.110Z,2.30
2019-01-08T13:02:41.817Z,2.60
2019-01-08T13:03:41.130Z,2.70
2019-01-08T13:04:41.169Z,2.90
2019-01-08T13:05:41.141Z,2.70
2019-01-08T13:06:41.133Z,2.40
2019-01-08T13:07:41.135Z,2.40
2019-01-08T13:08:41.174Z,2.70
2019-01-08T13:09:41.174Z,2.70
2019-01-08T13:10:41.154Z,2.30
2019-01-08T13:11:41.173Z,2.90
2019-01-08T13:12:41.163Z,2.50
2019-01-08T13:13:41.162Z,3.10